Time;durP1;ratioP1;P1;durP2;ratioP2;P2;SDS_P1;SDS_P2;PMS_P1;PMS_P2;Temp;Humidity;BMP_temperature;BMP_pressure;BME280_temperature;BME280_humidity;BME280_pressure;Samples;Min_cycle;Max_cycle;Signal;HPM_P1;HPM_P2
2022/09/11 00:04:35;;;;;;;22.08;17.90;;;;;;;14.49;79.25;100399.47;10114848;29;20046;-80
2022/09/11 00:09:38;;;;;;;20.75;15.23;;;;;;;14.57;78.75;100407.69;10072117;29;20050;-79
2022/09/11 00:14:41;;;;;;;23.80;18.20;;;;;;;14.53;79.09;100400.84;10095573;29;20037;-78
2022/09/11 00:19:45;;;;;;;19.83;16.20;;;;;;;14.52;78.84;100409.97;10098468;29;20073;-79
2022/09/11 00:24:48;;;;;;;23.88;17.15;;;;;;;14.48;79.04;100408.56;10096006;29;20123;-79
2022/09/11 00:29:53;;;;;;;26.42;19.23;;;;;;;14.41;79.01;100412.88;10097197;29;20080;-81
2022/09/11 00:34:57;;;;;;;24.05;18.77;;;;;;;14.35;79.36;100425.94;10091704;29;20041;-80
2022/09/11 00:40:00;;;;;;;37.28;22.75;;;;;;;14.32;79.59;100425.41;10084054;29;20084;-79
2022/09/11 00:45:06;;;;;;;33.50;23.85;;;;;;;14.29;79.79;100426.53;10071701;29;20049;-79
2022/09/11 00:50:13;;;;;;;40.53;26.27;;;;;;;14.19;80.81;100433.81;10084211;29;20054;-79
2022/09/11 00:55:21;;;;;;;40.00;26.63;;;;;;;14.22;80.49;100436.22;10091376;29;20522;-78
2022/09/11 01:00:24;;;;;;;36.35;25.65;;;;;;;14.23;80.66;100428.97;10072059;29;20045;-78
2022/09/11 01:05:33;;;;;;;37.97;26.85;;;;;;;14.14;80.91;100428.00;10081293;29;20479;-79
2022/09/11 01:10:45;;;;;;;42.28;28.55;;;;;;;14.13;80.91;100432.56;10088434;29;20500;-80
2022/09/11 01:16:02;;;;;;;38.30;25.73;;;;;;;14.12;80.69;100432.69;10091534;29;20045;-80
2022/09/11 01:21:28;;;;;;;45.38;29.63;;;;;;;14.10;80.93;100434.72;10086125;29;20053;-78
2022/09/11 01:26:47;;;;;;;43.85;28.70;;;;;;;13.96;81.63;100441.44;10095311;29;20042;-79
2022/09/11 01:31:59;;;;;;;56.45;34.58;;;;;;;13.85;82.69;100441.56;10109444;29;20060;-80
2022/09/11 01:37:07;;;;;;;61.10;36.00;;;;;;;13.76;82.82;100447.84;10080723;29;20140;-81
2022/09/11 01:42:15;;;;;;;57.53;36.28;;;;;;;13.57;83.59;100454.09;10109646;29;20033;-79
2022/09/11 01:47:21;;;;;;;70.18;38.78;;;;;;;13.32;86.42;100464.41;10106638;29;20121;-80
2022/09/11 01:52:39;;;;;;;68.47;39.42;;;;;;;13.50;85.75;100467.31;10090472;29;20078;-81
2022/09/11 01:57:47;;;;;;;84.82;42.97;;;;;;;13.66;85.08;100470.28;10085376;29;20048;-81
2022/09/11 02:02:59;;;;;;;70.90;40.40;;;;;;;13.30;86.81;100474.47;10075987;29;20074;-80
2022/09/11 02:08:08;;;;;;;77.70;41.22;;;;;;;13.57;85.49;100481.06;10084657;29;20049;-79
2022/09/11 02:13:15;;;;;;;;;;;;;;;13.94;84.83;100482.06;10098352;29;20051;-79
2022/09/11 02:18:25;;;;;;;89.22;47.33;;;;;;;13.94;84.92;100479.34;10083436;29;19927;-80
2022/09/11 02:23:28;;;;;;;92.50;48.30;;;;;;;14.02;84.99;100492.16;10087454;29;20065;-80
2022/09/11 02:28:31;;;;;;;101.03;50.45;;;;;;;14.04;84.48;100497.38;10079697;29;20045;-80
2022/09/11 02:33:37;;;;;;;108.50;48.78;;;;;;;14.20;84.05;100500.34;10070247;29;20053;-80
2022/09/11 02:38:51;;;;;;;106.03;49.95;;;;;;;14.38;83.56;100503.16;10065320;29;20057;-79
2022/09/11 02:44:04;;;;;;;99.35;48.42;;;;;;;14.52;83.63;100512.69;10068647;29;20073;-80
2022/09/11 02:49:19;;;;;;;98.88;48.97;;;;;;;14.63;83.37;100508.97;10078383;29;20182;-80
2022/09/11 02:54:29;;;;;;;106.63;50.13;;;;;;;14.67;82.95;100516.59;10073217;29;20049;-80
2022/09/11 02:59:37;;;;;;;104.93;50.75;;;;;;;14.67;82.83;100521.16;10103931;29;20093;-81
2022/09/11 03:04:42;;;;;;;105.63;49.70;;;;;;;14.27;84.17;100523.09;10098240;29;20105;-79
2022/09/11 03:09:45;;;;;;;100.90;49.08;;;;;;;14.42;83.46;100517.25;10094052;29;20168;-79
2022/09/11 03:14:55;;;;;;;99.18;49.25;;;;;;;14.22;84.68;100522.69;10082552;29;20047;-80
2022/09/11 03:20:00;;;;;;;97.55;49.25;;;;;;;14.16;85.54;100513.31;10093486;29;20094;-80
2022/09/11 03:25:05;;;;;;;101.20;50.83;;;;;;;14.36;84.69;100519.50;10091961;29;20049;-80
2022/09/11 03:30:09;;;;;;;103.60;52.20;;;;;;;14.30;85.22;100520.09;10109001;29;20037;-78
2022/09/11 03:35:15;;;;;;;115.50;53.15;;;;;;;14.56;84.60;100531.19;10098125;29;20069;-79
2022/09/11 03:40:19;;;;;;;105.47;48.67;;;;;;;14.45;84.26;100519.66;10105591;29;20065;-79
2022/09/11 03:45:22;;;;;;;101.50;50.97;;;;;;;14.47;84.47;100525.78;10082684;29;20069;-79
2022/09/11 03:50:26;;;;;;;112.43;51.85;;;;;;;14.66;84.22;100535.69;10081318;29;20061;-79
2022/09/11 03:55:30;;;;;;;107.28;51.70;;;;;;;14.73;83.94;100534.97;10082184;29;20046;-78
2022/09/11 04:00:35;;;;;;;104.28;50.60;;;;;;;14.71;83.27;100539.66;10083246;29;20109;-79
2022/09/11 04:05:40;;;;;;;103.40;51.10;;;;;;;14.63;83.40;100536.84;10077514;29;20056;-78
2022/09/11 04:10:43;;;;;;;103.25;50.25;;;;;;;14.57;83.60;100538.28;10106660;29;20275;-80
2022/09/11 04:15:46;;;;;;;111.50;53.35;;;;;;;14.58;83.62;100539.13;10076562;29;20049;-80
2022/09/11 04:20:51;;;;;;;108.32;53.65;;;;;;;14.61;83.69;100552.34;10091769;29;20045;-78
2022/09/11 04:25:55;;;;;;;120.45;54.95;;;;;;;14.59;83.41;100551.66;10078062;29;20518;-79
2022/09/11 04:31:03;;;;;;;136.20;58.60;;;;;;;14.12;86.66;100555.13;10091528;29;20607;-80
2022/09/11 04:36:12;;;;;;;127.10;54.38;;;;;;;14.32;85.21;100549.69;10085172;29;20053;-79
2022/09/11 04:41:16;;;;;;;139.07;59.83;;;;;;;14.45;85.24;100547.53;10103163;29;20049;-78
2022/09/11 04:46:19;;;;;;;120.30;53.83;;;;;;;14.27;85.71;100543.88;10108550;29;20037;-80
2022/09/11 04:51:26;;;;;;;127.63;54.63;;;;;;;14.30;85.60;100546.28;10101412;29;20052;-79
2022/09/11 04:56:36;;;;;;;136.73;56.67;;;;;;;14.10;86.45;100567.91;10088976;29;20077;-79
2022/09/11 05:01:39;;;;;;;142.95;58.00;;;;;;;14.33;85.53;100564.91;10085783;29;20053;-80
2022/09/11 05:06:47;;;;;;;125.00;56.00;;;;;;;14.22;86.12;100573.16;10080575;29;20045;-79
2022/09/11 05:11:51;;;;;;;128.23;55.15;;;;;;;14.08;86.62;100575.28;10069858;29;20065;-81
2022/09/11 05:16:56;;;;;;;125.30;53.33;;;;;;;14.28;86.01;100573.44;10076902;29;20049;-81
2022/09/11 05:22:03;;;;;;;123.72;53.15;;;;;;;14.35;85.81;100581.84;10083220;29;20401;-78
2022/09/11 05:27:08;;;;;;;123.28;53.47;;;;;;;14.40;85.41;100584.09;10089541;29;20445;-80
2022/09/11 05:32:13;;;;;;;119.00;50.00;;;;;;;13.93;87.24;100601.88;10093168;29;20049;-80
2022/09/11 05:37:18;;;;;;;113.40;49.47;;;;;;;14.48;85.04;100616.69;10100326;29;20097;-81
2022/09/11 05:42:23;;;;;;;94.70;43.80;;;;;;;14.10;86.21;100615.69;10080341;29;20046;-80
2022/09/11 05:47:29;;;;;;;80.45;38.20;;;;;;;14.37;83.95;100625.75;10085012;29;20153;-80
2022/09/11 05:52:34;;;;;;;78.93;38.50;;;;;;;14.56;83.13;100624.91;10095580;29;20053;-81
2022/09/11 05:57:37;;;;;;;75.53;34.63;;;;;;;14.72;82.80;100632.44;10076328;29;20136;-81
2022/09/11 06:02:41;;;;;;;43.28;24.00;;;;;;;14.68;82.04;100645.41;10109386;29;20545;-80
2022/09/11 06:07:45;;;;;;;35.95;20.55;;;;;;;15.05;81.96;100650.00;10091132;29;20407;-80
2022/09/11 06:12:48;;;;;;;38.53;22.60;;;;;;;15.26;80.82;100661.47;10079049;29;20053;-81
2022/09/11 06:17:51;;;;;;;34.03;20.92;;;;;;;15.35;79.64;100667.88;10078604;29;20049;-81
2022/09/11 06:22:56;;;;;;;35.55;20.95;;;;;;;15.41;79.49;100666.41;10070445;29;20467;-80
2022/09/11 06:28:01;;;;;;;55.50;29.25;;;;;;;15.24;78.27;100668.03;10065669;29;20045;-80
2022/09/11 06:33:05;;;;;;;57.10;31.23;;;;;;;15.34;78.71;100681.53;10106488;29;20041;-79
2022/09/11 06:38:10;;;;;;;60.78;30.92;;;;;;;14.60;80.61;100677.72;10076394;29;20045;-80
2022/09/11 06:43:14;;;;;;;60.80;30.60;;;;;;;14.82;80.29;100688.22;10072738;29;20069;-79
2022/09/11 06:48:18;;;;;;;63.60;31.75;;;;;;;14.67;81.42;100699.59;10090040;29;20045;-80
2022/09/11 06:53:23;;;;;;;67.07;32.42;;;;;;;14.80;80.95;100692.91;10074682;29;20082;-81
2022/09/11 06:58:29;;;;;;;65.78;31.65;;;;;;;14.92;80.71;100692.75;10086237;29;20045;-81
2022/09/11 07:03:33;;;;;;;57.90;29.75;;;;;;;14.89;80.35;100687.63;10090782;29;20041;-81
2022/09/11 07:08:41;;;;;;;60.10;29.55;;;;;;;15.21;80.02;100689.97;10123244;29;20037;-81
2022/09/11 07:13:44;;;;;;;53.70;27.42;;;;;;;15.24;79.08;100692.38;10080896;29;20053;-82
2022/09/11 07:18:48;;;;;;;52.03;27.88;;;;;;;15.45;78.92;100703.03;10082078;29;20050;-81
2022/09/11 07:23:59;;;;;;;41.53;24.73;;;;;;;15.54;77.54;100704.84;10067527;29;20105;-81
2022/09/11 07:29:08;;;;;;;49.83;26.38;;;;;;;15.55;77.27;100708.41;10083673;29;20419;-80
2022/09/11 07:34:11;;;;;;;49.97;27.08;;;;;;;15.53;77.12;100705.84;10074676;29;20054;-80
2022/09/11 07:39:15;;;;;;;50.92;28.55;;;;;;;15.17;78.21;100713.78;10064225;29;20114;-81
2022/09/11 07:44:25;;;;;;;56.55;27.80;;;;;;;15.12;79.58;100721.47;10071457;29;20125;-81
2022/09/11 07:49:28;;;;;;;54.33;29.05;;;;;;;15.26;79.76;100726.41;10073292;29;20110;-80
2022/09/11 07:54:33;;;;;;;55.28;28.30;;;;;;;14.97;79.82;100720.22;10074673;29;20077;-80
2022/09/11 07:59:38;;;;;;;59.05;28.48;;;;;;;15.27;79.58;100728.13;10081267;29;20082;-79
2022/09/11 08:04:42;;;;;;;47.90;26.05;;;;;;;15.50;79.56;100735.94;10080483;29;20080;-80
2022/09/11 08:09:46;;;;;;;50.40;26.83;;;;;;;15.30;78.01;100731.53;10075115;29;20056;-81
2022/09/11 08:15:10;;;;;;;53.25;27.08;;;;;;;15.46;78.61;100734.50;10081781;29;20132;-80
2022/09/11 08:20:13;;;;;;;49.38;26.63;;;;;;;15.76;77.84;100741.50;10089100;29;20053;-80
2022/09/11 08:25:18;;;;;;;48.17;26.00;;;;;;;15.81;76.57;100755.47;10103935;29;20037;-80
2022/09/11 08:30:21;;;;;;;46.42;26.05;;;;;;;15.74;76.70;100756.22;10076705;29;20073;-81
2022/09/11 08:35:25;;;;;;;45.78;25.50;;;;;;;15.95;76.17;100761.41;10079267;29;20145;-80
2022/09/11 08:40:30;;;;;;;45.80;24.92;;;;;;;15.78;75.82;100768.47;10078897;29;20052;-79
2022/09/11 08:45:36;;;;;;;40.92;23.30;;;;;;;15.72;75.75;100763.66;10081119;29;20129;-79
2022/09/11 08:50:43;;;;;;;36.50;21.65;;;;;;;16.28;75.08;100765.38;10085327;29;20041;-81
2022/09/11 08:55:59;;;;;;;34.70;20.92;;;;;;;16.93;72.90;100760.59;10091688;29;20046;-81
2022/09/11 09:01:11;;;;;;;33.03;20.13;;;;;;;16.72;70.58;100766.31;10094592;29;20056;-81
2022/09/11 09:06:33;;;;;;;30.52;20.90;;;;;;;17.23;70.43;100769.34;10085510;29;20053;-80
2022/09/11 09:11:47;;;;;;;30.83;19.30;;;;;;;17.35;69.00;100784.34;10085567;29;20129;-80
2022/09/11 09:16:59;;;;;;;26.48;17.77;;;;;;;18.12;67.90;100782.59;10085296;29;20482;-81
2022/09/11 09:22:12;;;;;;;29.90;18.50;;;;;;;18.41;65.75;100775.88;10085711;29;20045;-82
2022/09/11 09:27:27;;;;;;;24.40;15.57;;;;;;;18.34;65.18;100780.28;10083594;29;20038;-80
2022/09/11 09:32:37;;;;;;;27.10;18.23;;;;;;;18.28;65.08;100791.81;10122311;29;20060;-79
2022/09/11 09:37:40;;;;;;;25.83;16.45;;;;;;;18.46;64.00;100781.69;10103357;29;20064;-80
2022/09/11 09:43:11;;;;;;;21.42;14.65;;;;;;;18.97;61.86;100795.22;10086310;29;20570;-80
2022/09/11 09:48:15;;;;;;;19.40;14.30;;;;;;;17.98;64.47;100793.22;10101268;29;20045;-81
2022/09/11 09:53:28;;;;;;;20.95;13.98;;;;;;;18.46;63.11;100803.44;10092670;29;20056;-81
2022/09/11 09:58:36;;;;;;;17.55;12.35;;;;;;;18.90;62.95;100807.81;10096418;29;20038;-82
2022/09/11 10:03:39;;;;;;;17.67;12.68;;;;;;;18.12;63.32;100809.75;10089466;29;20087;-81
2022/09/11 10:08:43;;;;;;;20.00;13.68;;;;;;;18.11;64.74;100807.22;10079705;29;20045;-81
2022/09/11 10:13:56;;;;;;;19.45;13.15;;;;;;;18.71;63.23;100815.22;10094781;29;20057;-81
2022/09/11 10:18:59;;;;;;;19.05;12.95;;;;;;;18.92;62.30;100811.19;10101298;29;20045;-78
2022/09/11 10:24:19;;;;;;;15.70;11.48;;;;;;;18.47;62.64;100815.16;10105494;29;20101;-82
2022/09/11 10:29:28;;;;;;;13.60;10.27;;;;;;;18.70;62.17;100821.66;10091463;29;20041;-81
2022/09/11 10:34:36;;;;;;;12.23;9.32;;;;;;;19.11;61.31;100818.19;10085081;29;20132;-83
2022/09/11 10:39:41;;;;;;;11.98;9.10;;;;;;;19.43;60.69;100820.06;10095160;29;20048;-80
2022/09/11 10:44:47;;;;;;;12.68;9.35;;;;;;;19.62;60.44;100816.13;10096173;29;20936;-82
2022/09/11 10:49:50;;;;;;;12.20;9.20;;;;;;;19.86;57.70;100816.09;10096935;29;20037;-81
2022/09/11 10:55:01;;;;;;;12.75;8.73;;;;;;;20.00;58.37;100810.94;10106795;29;20500;-81
2022/09/11 11:00:16;;;;;;;13.55;9.35;;;;;;;20.21;57.35;100818.50;10087663;29;20048;-81
2022/09/11 11:05:26;;;;;;;17.35;10.98;;;;;;;19.97;57.99;100823.03;10086152;29;20117;-82
2022/09/11 11:10:41;;;;;;;16.17;10.50;;;;;;;19.64;59.36;100814.09;10104146;29;20041;-82
2022/09/11 11:15:57;;;;;;;14.23;10.43;;;;;;;19.59;60.02;100819.22;10099455;29;20054;-80
2022/09/11 11:21:13;;;;;;;15.85;11.02;;;;;;;19.59;59.62;100817.34;10082748;29;20124;-81
2022/09/11 11:26:31;;;;;;;15.25;11.15;;;;;;;19.08;60.84;100826.69;10085097;29;20049;-81
2022/09/11 11:31:58;;;;;;;15.15;10.95;;;;;;;19.60;60.44;100823.63;10094491;29;20434;-82
2022/09/11 11:37:05;;;;;;;18.27;11.05;;;;;;;19.79;59.99;100830.56;10102403;29;20046;-81
2022/09/11 11:42:13;;;;;;;15.38;8.63;;;;;;;20.56;56.92;100828.06;10116300;29;20053;-79
2022/09/11 11:47:24;;;;;;;13.05;9.32;;;;;;;20.39;57.17;100831.94;10113501;29;20045;-81
2022/09/11 11:52:38;;;;;;;10.23;7.93;;;;;;;19.79;56.70;100834.16;10104514;29;20073;-81
2022/09/11 11:57:47;;;;;;;11.98;9.57;;;;;;;22.01;52.89;100834.41;10083160;29;20077;-80
2022/09/11 12:02:58;;;;;;;12.02;9.68;;;;;;;23.21;48.52;100819.41;10088633;29;20053;-81
2022/09/11 12:08:01;;;;;;;9.95;8.35;;;;;;;21.77;51.03;100818.28;10094716;29;20087;-79
2022/09/11 12:13:11;;;;;;;10.95;8.50;;;;;;;21.19;53.32;100818.78;10095048;29;20064;-80
2022/09/11 12:18:24;;;;;;;10.73;7.78;;;;;;;21.33;53.69;100814.41;10098723;29;20102;-81
2022/09/11 12:23:34;;;;;;;10.90;7.65;;;;;;;21.80;53.87;100805.09;10100823;29;20056;-80
2022/09/11 12:28:37;;;;;;;10.48;8.00;;;;;;;22.90;50.45;100804.16;10094604;29;20033;-81
2022/09/11 12:33:55;;;;;;;10.10;7.03;;;;;;;24.69;45.73;100804.50;10105600;29;20045;-80
2022/09/11 12:39:03;;;;;;;8.73;6.72;;;;;;;24.98;44.56;100794.16;10113028;29;20426;-81
2022/09/11 12:44:29;;;;;;;7.03;5.32;;;;;;;23.77;45.96;100803.00;10103361;29;20060;-81
2022/09/11 12:49:36;;;;;;;8.38;5.78;;;;;;;23.10;47.92;100795.25;10102581;29;20164;-80
2022/09/11 12:54:43;;;;;;;8.32;6.38;;;;;;;21.77;49.76;100797.25;10106338;29;20500;-80
2022/09/11 12:59:53;;;;;;;7.80;6.32;;;;;;;21.12;51.57;100797.88;10100676;29;20053;-81
2022/09/11 13:04:57;;;;;;;7.13;5.90;;;;;;;20.78;52.75;100789.03;10100903;29;20049;-81
2022/09/11 13:10:06;;;;;;;7.55;5.28;;;;;;;21.03;53.45;100783.38;10092139;29;20044;-81
2022/09/11 13:15:51;;;;;;;7.47;5.18;;;;;;;20.79;52.72;100789.91;10094898;29;20114;-80
2022/09/11 13:21:00;;;;;;;5.85;4.57;;;;;;;20.88;51.75;100777.88;10113710;29;20112;-81
2022/09/11 13:26:06;;;;;;;10.50;5.30;;;;;;;20.55;51.90;100775.38;10111879;29;20329;-82
2022/09/11 13:31:18;;;;;;;8.38;4.97;;;;;;;20.08;53.45;100768.13;10096326;29;20044;-80
2022/09/11 13:36:24;;;;;;;7.43;4.75;;;;;;;19.94;53.96;100757.97;10092782;29;20048;-81
2022/09/11 13:41:30;;;;;;;7.70;4.63;;;;;;;20.66;54.81;100760.47;10108839;29;20037;-81
2022/09/11 13:46:34;;;;;;;6.05;5.03;;;;;;;21.19;51.15;100755.97;10097637;29;20433;-82
2022/09/11 13:51:41;;;;;;;7.88;4.60;;;;;;;20.34;52.43;100765.09;10088678;29;20046;-80
2022/09/11 13:56:47;;;;;;;5.47;4.95;;;;;;;19.99;54.42;100771.88;10100902;29;20045;-79
2022/09/11 14:01:55;;;;;;;5.00;4.50;;;;;;;20.16;55.59;100758.19;10101536;29;20041;-82
2022/09/11 14:06:59;;;;;;;5.70;4.25;;;;;;;21.55;50.97;100738.84;10099679;29;20045;-80
2022/09/11 14:12:03;;;;;;;6.70;4.70;;;;;;;21.52;51.68;100733.75;10073035;29;20109;-81
2022/09/11 14:17:12;;;;;;;5.00;4.25;;;;;;;22.66;47.70;100725.13;10095168;29;20073;-81
2022/09/11 14:22:24;;;;;;;6.50;4.00;;;;;;;24.32;44.34;100720.72;10087987;29;20050;-80
2022/09/11 14:27:36;;;;;;;5.70;3.40;;;;;;;23.08;44.93;100716.00;10098014;29;20075;-80
2022/09/11 14:32:39;;;;;;;3.85;2.83;;;;;;;21.88;47.76;100724.81;10091756;29;20481;-80
2022/09/11 14:37:45;;;;;;;2.97;2.53;;;;;;;23.37;43.92;100720.47;10104275;29;20049;-81
2022/09/11 14:42:48;;;;;;;5.22;2.90;;;;;;;24.58;40.98;100716.38;10099232;29;20042;-81
2022/09/11 14:47:52;;;;;;;3.67;2.80;;;;;;;24.19;41.97;100713.31;10089660;29;20040;-80
2022/09/11 14:52:56;;;;;;;2.97;2.20;;;;;;;24.69;41.82;100705.63;10092873;29;20052;-80
2022/09/11 14:58:00;;;;;;;3.17;2.28;;;;;;;24.96;40.63;100692.72;10089213;29;20117;-80
2022/09/11 15:03:03;;;;;;;4.38;2.80;;;;;;;23.68;41.51;100701.88;10082631;29;20060;-80
2022/09/11 15:08:09;;;;;;;2.92;2.20;;;;;;;23.32;44.45;100703.78;10091521;29;20114;-80
2022/09/11 15:13:12;;;;;;;3.60;2.33;;;;;;;23.92;41.51;100698.63;10104294;29;20080;-81
2022/09/11 15:18:17;;;;;;;3.25;2.95;;;;;;;22.34;45.52;100708.13;10101812;29;20056;-81
2022/09/11 15:23:22;;;;;;;3.30;2.85;;;;;;;21.65;46.86;100698.44;10106556;29;20061;-80
2022/09/11 15:28:27;;;;;;;2.92;2.50;;;;;;;22.84;44.12;100691.78;10094797;29;20056;-80
2022/09/11 15:33:32;;;;;;;4.13;3.30;;;;;;;23.18;44.04;100688.28;10098193;29;20507;-81
2022/09/11 15:38:37;;;;;;;4.65;3.58;;;;;;;23.94;43.22;100680.06;10105977;29;20041;-81
2022/09/11 15:43:40;;;;;;;3.63;2.60;;;;;;;24.77;41.09;100679.84;10113706;29;20044;-81
2022/09/11 15:48:43;;;;;;;4.88;2.63;;;;;;;24.58;41.66;100672.44;10095957;29;20510;-81
2022/09/11 15:53:48;;;;;;;2.83;2.58;;;;;;;24.23;42.61;100675.31;10099904;29;20046;-81
2022/09/11 15:58:51;;;;;;;3.75;3.17;;;;;;;24.10;43.64;100676.09;10103583;29;20041;-80
2022/09/11 16:03:55;;;;;;;3.33;2.47;;;;;;;23.52;44.68;100673.72;10105802;29;20049;-81
2022/09/11 16:09:03;;;;;;;3.90;3.50;;;;;;;23.44;45.32;100672.00;10097258;29;20125;-80
2022/09/11 16:14:06;;;;;;;5.65;2.50;;;;;;;23.03;44.62;100671.06;10097501;29;20048;-82
2022/09/11 16:19:09;;;;;;;4.18;2.60;;;;;;;21.73;47.63;100667.41;10094897;29;20411;-80
2022/09/11 16:24:14;;;;;;;4.35;3.45;;;;;;;20.98;51.45;100674.72;10093480;29;20080;-81
2022/09/11 16:29:19;;;;;;;6.68;4.07;;;;;;;20.54;52.95;100671.84;10096270;29;20049;-80
2022/09/11 16:34:23;;;;;;;6.78;4.70;;;;;;;20.41;53.81;100671.66;10091912;29;20045;-82
2022/09/11 16:39:28;;;;;;;5.90;5.28;;;;;;;20.23;54.54;100659.09;10096289;29;20048;-80
2022/09/11 16:44:32;;;;;;;7.50;5.55;;;;;;;19.85;55.98;100664.44;10095132;29;20054;-80
2022/09/11 16:49:35;;;;;;;8.20;6.78;;;;;;;19.61;56.90;100667.28;10098122;29;20061;-80
2022/09/11 16:55:00;;;;;;;10.05;6.07;;;;;;;19.34;57.93;100663.13;10085177;29;20451;-81
2022/09/11 17:00:04;;;;;;;9.15;6.38;;;;;;;19.12;58.53;100648.38;10088112;29;20049;-81
2022/09/11 17:05:09;;;;;;;11.32;7.30;;;;;;;19.18;58.62;100653.97;10091315;29;20046;-82
2022/09/11 17:10:13;;;;;;;11.35;7.97;;;;;;;19.12;59.29;100648.38;10096956;29;20041;-80
2022/09/11 17:15:18;;;;;;;9.75;7.82;;;;;;;19.03;59.72;100650.25;10087252;29;20105;-81
2022/09/11 17:20:21;;;;;;;9.13;6.95;;;;;;;18.90;60.51;100655.41;10093964;29;20033;-81
2022/09/11 17:25:25;;;;;;;9.10;6.15;;;;;;;18.65;61.25;100655.38;10097585;29;20113;-79
2022/09/11 17:30:28;;;;;;;6.63;4.90;;;;;;;18.50;62.27;100654.34;10062584;29;20106;-80
2022/09/11 17:35:31;;;;;;;7.97;5.63;;;;;;;18.35;62.79;100659.63;10097137;29;20045;-80
2022/09/11 17:40:37;;;;;;;7.40;6.05;;;;;;;18.19;63.51;100663.16;10081275;29;20037;-80
2022/09/11 17:45:40;;;;;;;9.25;5.43;;;;;;;18.08;63.83;100655.34;10089175;29;20078;-80
2022/09/11 17:50:43;;;;;;;6.70;6.00;;;;;;;17.93;64.30;100653.22;10118285;29;20045;-79
2022/09/11 17:55:48;;;;;;;6.20;5.60;;;;;;;17.83;64.72;100662.53;10109422;29;20048;-78
2022/09/11 18:00:51;;;;;;;6.22;5.63;;;;;;;17.73;65.21;100665.38;10091033;29;20604;-79
2022/09/11 18:05:54;;;;;;;7.65;6.00;;;;;;;17.61;65.67;100670.28;10091364;29;20053;-80
2022/09/11 18:11:00;;;;;;;6.95;6.13;;;;;;;17.44;65.95;100671.19;10098518;29;20634;-81
2022/09/11 18:16:03;;;;;;;8.95;6.57;;;;;;;17.33;66.20;100672.31;10099101;29;20109;-81
2022/09/11 18:21:13;;;;;;;9.57;6.95;;;;;;;17.27;66.54;100675.69;10088404;29;20393;-80
2022/09/11 18:26:23;;;;;;;7.00;6.32;;;;;;;17.31;66.75;100679.81;10098561;29;20056;-79
2022/09/11 18:31:28;;;;;;;8.48;6.95;;;;;;;17.33;66.60;100683.19;10090406;29;20068;-80
2022/09/11 18:36:32;;;;;;;13.00;8.25;;;;;;;17.31;66.80;100679.81;10083656;29;20057;-80
2022/09/11 18:41:36;;;;;;;9.23;7.70;;;;;;;17.30;67.13;100690.81;10084479;29;20556;-80
2022/09/11 18:46:39;;;;;;;9.50;7.53;;;;;;;17.29;66.94;100695.41;10087177;29;20060;-80
2022/09/11 18:51:43;;;;;;;9.10;8.18;;;;;;;17.32;67.07;100705.94;10099996;29;20044;-80
2022/09/11 18:56:47;;;;;;;11.70;9.20;;;;;;;17.27;66.72;100696.56;10103745;29;20046;-81
2022/09/11 19:01:50;;;;;;;10.55;8.20;;;;;;;17.18;65.68;100695.66;10087899;29;20065;-81
2022/09/11 19:06:53;;;;;;;8.90;7.15;;;;;;;17.26;64.63;100703.88;10088903;29;20053;-81
2022/09/11 19:11:58;;;;;;;10.45;6.78;;;;;;;17.21;64.74;100712.47;10086631;29;20098;-80
2022/09/11 19:17:03;;;;;;;14.65;7.57;;;;;;;17.06;65.22;100714.06;10078586;29;20140;-79
2022/09/11 19:22:06;;;;;;;9.25;6.88;;;;;;;16.93;65.86;100708.19;10077061;29;20053;-79
2022/09/11 19:27:10;;;;;;;10.27;7.22;;;;;;;16.94;65.67;100710.72;10090562;29;20551;-80
2022/09/11 19:32:13;;;;;;;10.10;7.25;;;;;;;16.96;65.46;100713.28;10090804;29;20563;-80
2022/09/11 19:37:18;;;;;;;15.60;6.88;;;;;;;16.90;65.67;100709.34;10067196;29;20054;-81
2022/09/11 19:42:23;;;;;;;11.80;7.38;;;;;;;16.90;65.82;100719.38;10084122;29;20045;-81
2022/09/11 19:47:27;;;;;;;9.88;7.82;;;;;;;16.83;66.06;100713.69;10091500;29;20499;-80
2022/09/11 19:52:30;;;;;;;10.50;8.65;;;;;;;16.78;65.94;100707.88;10096616;29;20054;-80
2022/09/11 19:57:36;;;;;;;10.88;7.97;;;;;;;16.65;66.68;100710.13;10090123;29;20045;-80
2022/09/11 20:02:39;;;;;;;11.52;8.48;;;;;;;16.62;66.89;100705.91;10099588;29;20049;-79
2022/09/11 20:07:42;;;;;;;10.13;9.02;;;;;;;16.58;66.98;100715.34;10096965;29;20570;-79
2022/09/11 20:12:47;;;;;;;10.35;8.65;;;;;;;16.50;67.41;100720.69;10103337;29;20048;-80
2022/09/11 20:17:50;;;;;;;11.55;8.63;;;;;;;16.40;67.67;100728.91;10090387;29;20067;-80
2022/09/11 20:22:54;;;;;;;10.80;8.95;;;;;;;16.34;68.01;100729.50;10099581;29;20094;-80
2022/09/11 20:28:00;;;;;;;9.75;8.27;;;;;;;16.29;68.18;100718.28;10091321;29;20058;-80
2022/09/11 20:33:03;;;;;;;9.82;8.00;;;;;;;16.31;68.04;100730.66;10090918;29;20041;-80
2022/09/11 20:38:06;;;;;;;12.10;9.02;;;;;;;16.13;68.09;100716.22;10099384;29;20116;-80
2022/09/11 20:43:10;;;;;;;13.75;11.00;;;;;;;15.88;68.70;100724.06;10091187;29;20537;-80
2022/09/11 20:48:13;;;;;;;13.73;10.93;;;;;;;15.76;69.23;100719.00;10086125;29;20049;-80
2022/09/11 20:53:16;;;;;;;12.73;10.20;;;;;;;15.68;69.46;100712.47;10093127;29;20057;-81
2022/09/11 20:58:21;;;;;;;12.75;9.82;;;;;;;15.61;69.38;100707.81;10094724;29;20048;-80
2022/09/11 21:03:24;;;;;;;13.63;10.30;;;;;;;15.54;69.92;100709.41;10085120;29;20411;-79
2022/09/11 21:08:27;;;;;;;10.48;9.38;;;;;;;15.50;69.99;100703.44;10088713;29;20061;-77
2022/09/11 21:13:34;;;;;;;14.23;11.70;;;;;;;15.51;70.34;100704.28;10093295;29;20408;-81
2022/09/11 21:18:38;;;;;;;18.23;12.15;;;;;;;15.46;70.73;100700.16;10096567;29;20098;-79
2022/09/11 21:23:41;;;;;;;17.38;11.57;;;;;;;15.37;71.32;100698.34;10100813;29;20057;-81
2022/09/11 21:28:45;;;;;;;17.02;12.85;;;;;;;15.27;71.63;100687.53;10087009;29;20061;-78
2022/09/11 21:33:48;;;;;;;18.10;13.52;;;;;;;15.18;72.86;100684.88;10075812;29;20045;-79
2022/09/11 21:38:51;;;;;;;17.67;14.00;;;;;;;15.03;73.45;100682.63;10087211;29;20083;-78
2022/09/11 21:43:55;;;;;;;18.48;12.40;;;;;;;14.99;73.38;100692.03;10075255;29;20661;-79
2022/09/11 21:48:58;;;;;;;16.38;12.27;;;;;;;15.00;73.48;100690.16;10066360;29;20064;-79
2022/09/11 21:54:01;;;;;;;21.63;14.98;;;;;;;14.93;73.53;100684.50;10085201;29;20042;-80
2022/09/11 21:59:06;;;;;;;21.60;14.60;;;;;;;14.87;74.02;100684.22;10080387;29;20057;-79
2022/09/11 22:04:09;;;;;;;17.90;13.57;;;;;;;14.79;74.67;100687.66;10094897;29;20048;-79
2022/09/11 22:09:12;;;;;;;17.80;13.27;;;;;;;14.69;74.82;100693.06;10063306;29;20049;-78
2022/09/11 22:14:19;;;;;;;18.30;14.32;;;;;;;14.61;74.78;100692.94;10087439;29;20044;-80
2022/09/11 22:19:22;;;;;;;18.80;15.27;;;;;;;14.64;74.86;100689.09;10083401;29;20049;-80
2022/09/11 22:24:25;;;;;;;18.27;12.68;;;;;;;14.65;75.11;100688.94;10086066;29;20407;-80
2022/09/11 22:29:29;;;;;;;13.82;11.88;;;;;;;14.64;74.41;100689.09;10087602;29;20081;-80
2022/09/11 22:34:33;;;;;;;14.55;11.00;;;;;;;14.66;74.26;100687.94;10078913;29;20415;-80
2022/09/11 22:39:36;;;;;;;17.13;11.88;;;;;;;14.64;74.31;100697.19;10087668;29;20086;-79
2022/09/11 22:44:40;;;;;;;15.88;11.63;;;;;;;14.58;73.98;100691.34;10083114;29;20128;-79
2022/09/11 22:49:43;;;;;;;18.80;13.50;;;;;;;14.50;74.03;100693.91;10081187;29;20057;-79
2022/09/11 22:54:46;;;;;;;18.27;14.07;;;;;;;14.37;74.68;100690.63;10074103;29;20097;-81
2022/09/11 22:59:50;;;;;;;19.15;14.18;;;;;;;14.26;75.14;100690.75;10067771;29;20052;-79
2022/09/11 23:10:11;;;;;;;20.23;14.80;;;;;;;14.13;74.99;100688.34;10104459;29;20033;-79
2022/09/11 23:15:15;;;;;;;19.63;14.10;;;;;;;14.07;75.85;100684.34;10144831;29;20041;-81